Hlavní strana
METAR-TAF:

METAR-TAF

Letiště :

Letiště Vaasa

Vaasa, Finsko

zeměpisná šířka: 63-03N, zeměpisná délka: 021-46E, výška: 4 m

Aktuální stav počasí

Zpráva byla vytvořena před 10 minutami, v 23:50 UTC
Jihojihozápadní vítr 4 kt
Teplota 0°C
Vlhkost vzduchu 93%
Tlak 1033 hPa
Viditelnost 10 km a více

METAR: EFVA 192350Z AUTO 21004KT 9999 OVC012/// M00/M01 Q1033

Čas: 02:00 (00:00 UTC)

Předpověď počasí

Zpráva byla vytvořena před 31 minutami, v 23:29 UTC
Předpověď platná od 20 v 00 UTC do 21 v 00 UTC
Jižní vítr 4 kt
Viditelnost 10 km a více
Polojasno ve výšce 1300 ft
Dočasný
od 20 v 00 UTC do 20 v 03 UTC
Oblačno až skoro zataženo ve výšce 1300 ft

TAF: EFVA 192329Z 2000/2100 19004KT 9999 SCT013 TEMPO 2000/2003 BKN013

Stav a předpovědi počasí z více než 4 000 letišť (zprávy METAR a TAF).

Červené a žluté tečky na mapě představují dostupné meteorologické stanice.

Když kurzor umístíte na tečku, zobrazí se název stanice.

Pak kliknutím zobrazíte stav a předpověď počasí.

Chcete-li změnit mapu, kliknutím na zelené tlačítko se znaménkem +mapu přiblížíte, kliknutím na zelené tlačítko se znaménkem – mapu oddálíte a kliknutím na zelené šipky přejdete na sousední mapy.


METAR-TAF: